createdAt,value
2023-01-03T00:00:31.168Z,0.90
2023-01-03T00:03:34.098Z,1.10
2023-01-03T00:06:19.390Z,0.80
2023-01-03T00:09:05.087Z,0.80
2023-01-03T00:12:08.759Z,0.80
2023-01-03T00:14:51.634Z,1.10
2023-01-03T00:17:34.507Z,1.40
2023-01-03T00:20:17.551Z,1.60
2023-01-03T00:23:02.142Z,0.70
2023-01-03T00:25:45.158Z,1.10
2023-01-03T00:28:28.015Z,1.20
2023-01-03T00:31:12.949Z,1.30
2023-01-03T00:33:55.873Z,1.20
2023-01-03T00:36:39.365Z,1.00
2023-01-03T00:39:22.817Z,1.80
2023-01-03T00:42:07.525Z,1.40
2023-01-03T00:44:50.458Z,1.30
2023-01-03T00:47:33.339Z,1.50
2023-01-03T00:50:16.651Z,1.50
2023-01-03T00:52:59.460Z,1.20
2023-01-03T00:55:42.593Z,1.40
2023-01-03T00:58:25.411Z,1.30
2023-01-03T01:01:13.795Z,1.30
2023-01-03T01:04:06.006Z,1.00
2023-01-03T01:07:07.363Z,1.10
2023-01-03T01:09:51.377Z,1.20
2023-01-03T01:12:34.342Z,1.50
2023-01-03T01:15:17.259Z,0.90
2023-01-03T01:18:00.153Z,1.20
2023-01-03T01:20:43.978Z,1.40
2023-01-03T01:23:26.871Z,1.30
2023-01-03T01:26:17.088Z,1.30
2023-01-03T01:28:59.908Z,1.40
2023-01-03T01:31:43.963Z,1.50
2023-01-03T01:34:26.870Z,1.30
2023-01-03T01:37:09.856Z,1.30
2023-01-03T01:39:52.696Z,1.50
2023-01-03T01:42:54.053Z,1.00
2023-01-03T01:45:38.671Z,1.20
2023-01-03T01:48:22.219Z,1.10
2023-01-03T01:51:07.267Z,1.60
2023-01-03T01:53:54.533Z,1.40
2023-01-03T01:56:46.356Z,1.60
2023-01-03T01:59:29.321Z,1.90
2023-01-03T02:02:18.606Z,1.60
2023-01-03T02:05:06.565Z,1.50
2023-01-03T02:07:51.405Z,1.50
2023-01-03T02:10:48.490Z,1.70
2023-01-03T02:13:58.821Z,1.70
2023-01-03T02:17:40.987Z,1.80
2023-01-03T02:20:23.849Z,1.70
2023-01-03T02:23:23.583Z,1.60
2023-01-03T02:26:20.483Z,1.40
2023-01-03T02:29:09.326Z,1.80
2023-01-03T02:32:11.856Z,1.70
2023-01-03T02:35:20.047Z,2.20
2023-01-03T02:38:30.966Z,2.40
2023-01-03T02:41:39.411Z,2.50
2023-01-03T02:44:29.413Z,3.00
2023-01-03T02:47:15.351Z,3.10
2023-01-03T02:50:01.571Z,3.50
2023-01-03T02:52:46.829Z,3.20
2023-01-03T02:55:32.898Z,3.80
2023-01-03T02:58:21.269Z,3.60
2023-01-03T03:01:07.666Z,4.40
2023-01-03T03:03:51.390Z,4.30
2023-01-03T03:06:43.381Z,4.70
2023-01-03T03:09:26.244Z,4.50
2023-01-03T03:12:28.015Z,3.90
2023-01-03T03:15:14.222Z,3.50
2023-01-03T03:18:02.377Z,3.80
2023-01-03T03:21:03.869Z,3.90
2023-01-03T03:24:08.059Z,2.90
2023-01-03T03:26:53.371Z,3.70
2023-01-03T03:29:36.550Z,3.60
2023-01-03T03:32:20.111Z,3.20
2023-01-03T03:35:06.774Z,2.70
2023-01-03T03:37:55.806Z,2.70
2023-01-03T03:41:04.030Z,3.10
2023-01-03T03:44:14.463Z,2.80
2023-01-03T03:47:05.398Z,2.90
2023-01-03T03:49:50.960Z,2.70
2023-01-03T03:52:35.681Z,2.30
2023-01-03T03:55:41.982Z,3.00
2023-01-03T03:58:34.036Z,2.30
2023-01-03T04:01:20.568Z,2.50
2023-01-03T04:04:10.971Z,3.00
2023-01-03T04:06:54.300Z,3.00
2023-01-03T04:09:37.191Z,3.00
2023-01-03T04:12:20.104Z,3.50
2023-01-03T04:15:03.986Z,2.90
2023-01-03T04:17:47.025Z,3.50
2023-01-03T04:20:30.135Z,3.70
2023-01-03T04:23:12.915Z,3.50
2023-01-03T04:25:56.003Z,3.40
2023-01-03T04:28:38.819Z,3.00
2023-01-03T04:31:21.865Z,3.20
2023-01-03T04:34:04.708Z,3.50
2023-01-03T04:36:47.565Z,3.40
2023-01-03T04:39:30.463Z,3.50
2023-01-03T04:42:31.640Z,3.10
2023-01-03T04:45:14.586Z,3.80
2023-01-03T04:47:57.582Z,3.60
2023-01-03T04:50:40.468Z,3.10
2023-01-03T04:53:24.874Z,2.90
2023-01-03T04:56:08.133Z,3.00
2023-01-03T04:58:51.000Z,2.90
2023-01-03T05:01:34.143Z,2.70
2023-01-03T05:04:17.703Z,3.20
2023-01-03T05:07:00.679Z,3.00
2023-01-03T05:09:43.819Z,3.20
2023-01-03T05:12:27.332Z,3.00
2023-01-03T05:15:10.675Z,3.30
2023-01-03T05:17:53.799Z,3.20
2023-01-03T05:20:56.332Z,3.60
2023-01-03T05:23:57.697Z,3.30
2023-01-03T05:26:41.865Z,3.90
2023-01-03T05:29:26.054Z,4.00
2023-01-03T05:32:09.060Z,4.10
2023-01-03T05:34:52.057Z,4.00
2023-01-03T05:37:34.896Z,3.40
2023-01-03T05:40:17.795Z,3.80
2023-01-03T05:43:00.655Z,4.40
2023-01-03T05:45:43.804Z,4.60
2023-01-03T05:48:27.738Z,4.50
2023-01-03T05:51:10.632Z,6.10
2023-01-03T05:53:53.477Z,6.00
2023-01-03T05:56:36.490Z,5.90
2023-01-03T05:59:19.776Z,6.80
2023-01-03T06:02:02.847Z,6.70
2023-01-03T06:04:45.817Z,7.40
2023-01-03T06:07:30.126Z,6.30
2023-01-03T06:10:13.070Z,5.70
2023-01-03T06:12:56.778Z,5.10
2023-01-03T06:15:39.728Z,5.90
2023-01-03T06:18:24.376Z,5.40
2023-01-03T06:21:08.279Z,6.20
2023-01-03T06:23:51.299Z,5.70
2023-01-03T06:26:34.275Z,5.10
2023-01-03T06:29:17.266Z,4.60
2023-01-03T06:32:05.147Z,4.60
2023-01-03T06:34:51.720Z,4.10
2023-01-03T06:37:34.582Z,4.50
2023-01-03T06:40:19.354Z,4.00
2023-01-03T06:43:02.834Z,5.10
2023-01-03T06:46:04.396Z,4.90
2023-01-03T06:49:05.840Z,4.10
2023-01-03T06:52:08.878Z,4.60
2023-01-03T06:54:54.069Z,3.50
2023-01-03T06:57:36.983Z,3.30
2023-01-03T07:00:19.919Z,2.90
2023-01-03T07:03:08.927Z,2.60
2023-01-03T07:05:55.402Z,3.40
2023-01-03T07:08:42.618Z,3.30
2023-01-03T07:11:29.062Z,2.80
2023-01-03T07:14:12.856Z,3.50
2023-01-03T07:16:55.672Z,3.20
2023-01-03T07:19:38.487Z,3.50
2023-01-03T07:22:21.364Z,3.30
2023-01-03T07:25:04.504Z,3.00
2023-01-03T07:28:01.861Z,3.20
2023-01-03T07:30:48.474Z,3.90
2023-01-03T07:33:32.137Z,3.50
2023-01-03T07:36:16.106Z,3.70
2023-01-03T07:38:59.983Z,3.50
2023-01-03T07:42:01.527Z,5.20
2023-01-03T07:44:44.454Z,3.30
2023-01-03T07:47:27.310Z,3.90
2023-01-03T07:50:11.472Z,3.30
2023-01-03T07:52:54.343Z,3.30
2023-01-03T07:58:20.552Z,3.40
2023-01-03T08:01:05.290Z,3.50
2023-01-03T08:03:48.803Z,3.20
2023-01-03T08:06:33.022Z,3.30
2023-01-03T08:09:34.612Z,3.10
2023-01-03T08:12:36.084Z,3.30
2023-01-03T08:15:19.075Z,3.90
2023-01-03T08:18:02.104Z,2.60
2023-01-03T08:20:46.050Z,2.90
2023-01-03T08:23:29.925Z,2.90
2023-01-03T08:26:15.545Z,2.60
2023-01-03T08:28:58.540Z,2.30
2023-01-03T08:31:55.161Z,3.60
2023-01-03T08:34:42.153Z,3.10
2023-01-03T08:37:25.115Z,3.30
2023-01-03T08:40:12.658Z,3.50
2023-01-03T08:42:55.617Z,2.70
2023-01-03T08:45:39.313Z,3.50
2023-01-03T08:48:23.254Z,2.50
2023-01-03T08:51:06.650Z,2.60
2023-01-03T08:53:49.625Z,2.60
2023-01-03T08:56:34.488Z,3.10
2023-01-03T08:59:17.508Z,2.60
2023-01-03T09:02:02.073Z,3.40
2023-01-03T09:04:45.120Z,2.00
2023-01-03T09:07:28.180Z,2.50
2023-01-03T09:10:12.264Z,3.40
2023-01-03T09:12:55.114Z,2.60
2023-01-03T09:15:38.075Z,2.30
2023-01-03T09:18:21.014Z,2.70
2023-01-03T09:21:05.041Z,2.90
2023-01-03T09:23:47.940Z,2.60
2023-01-03T09:26:30.887Z,3.10
2023-01-03T09:29:13.816Z,3.60
2023-01-03T09:31:56.851Z,2.80
2023-01-03T09:34:39.751Z,3.10
2023-01-03T09:37:22.721Z,3.00
2023-01-03T09:40:06.343Z,3.30
2023-01-03T09:43:09.899Z,2.60
2023-01-03T09:45:55.850Z,3.50
2023-01-03T09:48:41.031Z,2.40
2023-01-03T09:51:47.874Z,2.50
2023-01-03T09:54:57.967Z,2.30
2023-01-03T09:58:00.017Z,2.80
2023-01-03T10:01:06.709Z,2.80
2023-01-03T10:04:05.445Z,2.70
2023-01-03T10:07:06.763Z,2.60
2023-01-03T10:10:14.685Z,2.60
2023-01-03T10:13:03.385Z,2.40
2023-01-03T10:15:54.993Z,2.10
2023-01-03T10:18:53.137Z,2.70
2023-01-03T10:21:57.955Z,2.30
2023-01-03T10:24:56.413Z,3.00
2023-01-03T10:27:48.407Z,2.70
2023-01-03T10:31:07.556Z,2.40
2023-01-03T10:33:53.424Z,2.80
2023-01-03T10:36:36.407Z,2.40
2023-01-03T10:39:29.919Z,2.80
2023-01-03T10:42:19.559Z,2.60
2023-01-03T10:45:17.188Z,2.10
2023-01-03T10:48:01.729Z,2.10
2023-01-03T10:50:44.751Z,2.50
2023-01-03T10:53:28.718Z,2.10
2023-01-03T10:56:16.095Z,3.10
2023-01-03T10:59:12.394Z,2.80
2023-01-03T11:02:15.183Z,1.70
2023-01-03T11:05:12.580Z,2.00
2023-01-03T11:08:02.063Z,1.20
2023-01-03T11:10:52.609Z,1.50
2023-01-03T11:13:42.265Z,1.70
2023-01-03T11:16:32.102Z,1.40
2023-01-03T11:19:18.405Z,1.80
2023-01-03T11:22:09.649Z,1.50
2023-01-03T11:25:12.661Z,1.80
2023-01-03T11:28:17.051Z,1.80
2023-01-03T11:31:00.327Z,1.80
2023-01-03T11:34:00.320Z,2.00
2023-01-03T11:36:48.717Z,1.80
2023-01-03T11:39:47.055Z,2.40
2023-01-03T11:42:38.878Z,2.10
2023-01-03T11:45:40.596Z,2.00
2023-01-03T11:48:50.200Z,1.50
2023-01-03T11:51:40.214Z,2.00
2023-01-03T11:54:52.959Z,1.80
2023-01-03T12:00:28.517Z,1.80
2023-01-03T12:03:20.534Z,2.90
2023-01-03T12:06:28.949Z,2.40
2023-01-03T12:09:23.517Z,1.80
2023-01-03T12:12:34.127Z,1.70
2023-01-03T12:15:50.661Z,1.80
2023-01-03T12:19:22.533Z,1.90
2023-01-03T12:22:16.700Z,1.60
2023-01-03T12:25:07.304Z,2.00
2023-01-03T12:28:02.181Z,2.50
2023-01-03T12:30:57.018Z,1.60
2023-01-03T12:33:43.193Z,1.50
2023-01-03T12:36:38.049Z,1.50
2023-01-03T12:39:35.562Z,2.00
2023-01-03T12:42:36.795Z,2.40
2023-01-03T12:45:39.777Z,2.50
2023-01-03T12:48:28.926Z,2.00
2023-01-03T12:51:16.099Z,3.10
2023-01-03T12:54:36.597Z,3.30
2023-01-03T12:57:35.420Z,5.20
2023-01-03T13:00:40.859Z,3.40
2023-01-03T13:03:34.107Z,2.90
2023-01-03T13:06:29.503Z,2.40
2023-01-03T13:09:24.738Z,2.40
2023-01-03T13:12:14.047Z,4.70
2023-01-03T13:15:03.688Z,4.60
2023-01-03T13:17:48.897Z,3.90
2023-01-03T13:20:31.795Z,4.30
2023-01-03T13:23:42.265Z,5.20
2023-01-03T13:26:29.265Z,8.70
2023-01-03T13:29:50.550Z,9.10
2023-01-03T13:32:48.375Z,5.70
2023-01-03T13:35:35.074Z,10.70
2023-01-03T13:38:26.005Z,7.50
2023-01-03T13:41:30.176Z,5.70
2023-01-03T13:44:21.287Z,2.40
2023-01-03T13:47:04.424Z,2.40
2023-01-03T13:49:53.879Z,2.30
2023-01-03T13:53:02.331Z,2.60
2023-01-03T13:55:56.900Z,2.90
2023-01-03T13:58:57.532Z,2.90
2023-01-03T14:01:59.393Z,9.10
2023-01-03T14:05:18.733Z,18.30
2023-01-03T14:08:10.141Z,14.30
2023-01-03T14:11:03.807Z,8.40
2023-01-03T14:14:04.819Z,7.50
2023-01-03T14:16:51.687Z,4.70
2023-01-03T14:19:37.078Z,3.80
2023-01-03T14:22:31.672Z,4.30
2023-01-03T14:25:37.286Z,3.20
2023-01-03T14:28:31.848Z,3.00
2023-01-03T14:31:22.046Z,2.70
2023-01-03T14:34:06.550Z,3.40
2023-01-03T14:36:49.563Z,3.40
2023-01-03T14:45:17.200Z,2.80
2023-01-03T14:48:00.857Z,2.60
2023-01-03T14:50:44.019Z,2.80
2023-01-03T14:53:27.927Z,2.80
2023-01-03T14:56:11.298Z,3.90
2023-01-03T14:58:55.576Z,3.50
2023-01-03T15:01:38.877Z,3.30
2023-01-03T15:04:24.567Z,3.80
2023-01-03T15:07:13.391Z,4.40
2023-01-03T15:10:12.048Z,4.50
2023-01-03T15:13:02.383Z,6.70
2023-01-03T15:15:54.773Z,6.40
2023-01-03T15:18:40.841Z,6.70
2023-01-03T15:21:24.112Z,7.10
2023-01-03T15:24:21.809Z,7.90
2023-01-03T15:27:37.515Z,8.00
2023-01-03T15:30:27.331Z,7.60
2023-01-03T15:33:22.906Z,6.40
2023-01-03T15:36:18.403Z,6.00
2023-01-03T15:39:02.011Z,5.50
2023-01-03T15:42:42.317Z,5.60
2023-01-03T15:45:12.174Z,6.30
2023-01-03T15:48:00.713Z,6.60
2023-01-03T15:50:49.541Z,6.70
2023-01-03T15:53:42.826Z,6.00
2023-01-03T15:56:33.993Z,7.00
2023-01-03T15:59:24.116Z,6.30
2023-01-03T16:02:15.811Z,6.60
2023-01-03T16:04:59.087Z,7.70
2023-01-03T16:07:41.984Z,7.40
2023-01-03T16:10:25.093Z,8.60
2023-01-03T16:13:09.838Z,11.00
2023-01-03T16:15:53.505Z,11.00
2023-01-03T16:18:44.795Z,11.00
2023-01-03T16:21:28.430Z,11.20
2023-01-03T16:24:18.135Z,11.80
2023-01-03T16:27:11.371Z,11.00
2023-01-03T16:29:55.104Z,11.20
2023-01-03T16:32:38.153Z,10.40
2023-01-03T16:35:21.239Z,10.60
2023-01-03T16:38:05.222Z,9.80
2023-01-03T16:40:48.111Z,8.60
2023-01-03T16:46:18.062Z,8.80
2023-01-03T16:49:01.291Z,9.20
2023-01-03T16:51:48.177Z,9.10
2023-01-03T16:54:34.514Z,8.20
2023-01-03T16:57:19.078Z,9.90
2023-01-03T17:00:02.248Z,10.30
2023-01-03T17:02:45.388Z,9.70
2023-01-03T17:05:33.128Z,9.80
2023-01-03T17:08:31.666Z,10.80
2023-01-03T17:11:16.090Z,10.00
2023-01-03T17:14:02.403Z,10.80
2023-01-03T17:16:45.849Z,10.20
2023-01-03T17:20:02.833Z,10.60
2023-01-03T17:25:15.329Z,9.30
2023-01-03T17:27:59.971Z,10.20
2023-01-03T17:30:43.723Z,9.50
2023-01-03T17:33:32.183Z,8.80
2023-01-03T17:36:25.865Z,9.00
2023-01-03T17:39:10.983Z,8.70
2023-01-03T17:42:12.742Z,8.70
2023-01-03T17:45:14.798Z,9.20
2023-01-03T17:48:17.411Z,7.50
2023-01-03T17:51:01.954Z,7.90
2023-01-03T17:53:46.625Z,8.60
2023-01-03T17:56:29.999Z,8.10
2023-01-03T17:59:14.363Z,6.90
2023-01-03T18:01:59.534Z,8.00
2023-01-03T18:05:13.694Z,8.50
2023-01-03T18:07:46.445Z,9.50
2023-01-03T18:10:45.293Z,10.10
2023-01-03T18:13:36.133Z,9.40
2023-01-03T18:16:22.315Z,9.70
2023-01-03T18:19:05.461Z,10.00
2023-01-03T18:21:48.804Z,10.00
2023-01-03T18:24:31.878Z,9.80
2023-01-03T18:27:15.582Z,12.80
2023-01-03T18:29:58.622Z,11.90
2023-01-03T18:35:32.278Z,13.00
2023-01-03T18:38:41.150Z,15.20
2023-01-03T18:41:27.591Z,17.40
2023-01-03T18:44:22.081Z,17.80
2023-01-03T18:47:06.381Z,18.30
2023-01-03T18:49:49.544Z,18.90
2023-01-03T18:52:38.127Z,18.20
2023-01-03T18:55:25.912Z,16.50
2023-01-03T18:58:20.539Z,16.90
2023-01-03T19:01:04.755Z,14.50
2023-01-03T19:03:49.630Z,13.40
2023-01-03T19:06:34.805Z,13.40
2023-01-03T19:09:26.183Z,16.30
2023-01-03T19:12:17.510Z,15.30
2023-01-03T19:15:00.798Z,14.30
2023-01-03T19:17:43.724Z,15.10
2023-01-03T19:20:27.567Z,14.40
2023-01-03T19:23:19.514Z,13.30
2023-01-03T19:26:05.515Z,12.30
2023-01-03T19:28:48.718Z,11.60
2023-01-03T19:31:41.087Z,13.60
2023-01-03T19:34:26.469Z,10.20
2023-01-03T19:37:12.993Z,9.90
2023-01-03T19:39:56.872Z,10.90
2023-01-03T19:42:49.332Z,14.60
2023-01-03T19:45:35.217Z,11.90
2023-01-03T19:48:22.103Z,12.40
2023-01-03T19:51:05.346Z,12.90
2023-01-03T19:53:48.243Z,11.30
2023-01-03T19:56:31.778Z,9.90
2023-01-03T19:59:26.333Z,9.90
2023-01-03T20:02:34.441Z,7.70
2023-01-03T20:05:23.419Z,7.20
2023-01-03T20:08:12.118Z,8.10
2023-01-03T20:10:56.811Z,7.20
2023-01-03T20:13:40.037Z,7.80
2023-01-03T20:16:24.446Z,8.30
2023-01-03T20:19:15.821Z,7.40
2023-01-03T20:21:58.805Z,7.40
2023-01-03T20:24:42.100Z,6.80
2023-01-03T20:27:25.083Z,7.00
2023-01-03T20:30:16.828Z,7.50
2023-01-03T20:33:00.116Z,7.10
2023-01-03T20:38:48.931Z,8.80
2023-01-03T20:41:37.752Z,7.90
2023-01-03T20:44:21.424Z,8.80
2023-01-03T20:47:04.515Z,9.60
2023-01-03T20:49:47.862Z,9.80
2023-01-03T20:52:31.037Z,12.60
2023-01-03T20:55:16.629Z,10.10
2023-01-03T20:57:59.917Z,11.10
2023-01-03T21:00:45.925Z,9.50
2023-01-03T21:03:29.004Z,10.50
2023-01-03T21:06:34.264Z,10.60
2023-01-03T21:09:17.137Z,11.10
2023-01-03T21:14:42.990Z,11.20
2023-01-03T21:20:15.284Z,9.40
2023-01-03T21:22:58.731Z,10.70
2023-01-03T21:25:41.563Z,10.60
2023-01-03T21:31:07.402Z,10.50
2023-01-03T21:33:50.906Z,9.70
2023-01-03T21:36:35.889Z,9.30
2023-01-03T21:39:20.128Z,10.70
2023-01-03T21:42:24.882Z,11.00
2023-01-03T21:45:13.148Z,11.50
2023-01-03T21:47:56.583Z,11.80
2023-01-03T21:50:44.106Z,11.90
2023-01-03T21:53:27.028Z,11.20
2023-01-03T21:56:21.984Z,11.10
2023-01-03T21:59:05.153Z,12.10
2023-01-03T22:02:07.028Z,12.10
2023-01-03T22:04:50.518Z,11.00
2023-01-03T22:07:33.403Z,12.20
2023-01-03T22:10:17.059Z,12.60
2023-01-03T22:13:08.236Z,13.60
2023-01-03T22:15:51.363Z,13.50
2023-01-03T22:18:35.485Z,12.90
2023-01-03T22:21:19.002Z,13.90
2023-01-03T22:24:02.493Z,13.90
2023-01-03T22:26:45.576Z,14.60
2023-01-03T22:29:28.630Z,15.00
2023-01-03T22:32:11.654Z,14.30
2023-01-03T22:34:54.677Z,14.70
2023-01-03T22:37:38.559Z,14.10
2023-01-03T22:40:22.155Z,15.20
2023-01-03T22:43:05.434Z,13.70
2023-01-03T22:45:48.357Z,14.70
2023-01-03T22:48:31.287Z,17.40
2023-01-03T22:53:58.601Z,17.60
2023-01-03T22:56:41.680Z,17.60
2023-01-03T22:59:24.569Z,20.60
2023-01-03T23:04:51.772Z,30.90
2023-01-03T23:07:34.595Z,33.80
2023-01-03T23:13:00.780Z,31.90
2023-01-03T23:15:43.727Z,28.80
2023-01-03T23:18:26.555Z,28.20
2023-01-03T23:23:53.267Z,28.90
2023-01-03T23:26:36.146Z,29.60
2023-01-03T23:32:02.238Z,34.70
2023-01-03T23:37:27.785Z,28.80
2023-01-03T23:40:11.217Z,28.20
2023-01-03T23:42:54.023Z,24.90
2023-01-03T23:48:19.777Z,25.20
2023-01-03T23:53:50.500Z,24.90
2023-01-03T23:56:33.538Z,27.20
2023-01-03T23:59:16.571Z,26.60
